Time;durP1;ratioP1;P1;durP2;ratioP2;P2;SDS_P1;SDS_P2;PMS_P1;PMS_P2;Temp;Humidity;BMP_temperature;BMP_pressure;BME280_temperature;BME280_humidity;BME280_pressure;Samples;Min_cycle;Max_cycle;Signal;HPM_P1;HPM_P2
2022/04/05 00:04:46;;;;;;;8.15;5.93;;;;;;;2.37;61.26;96041.31;10455827;27;97228;-63
2022/04/05 00:09:49;;;;;;;11.50;6.80;;;;;;;2.46;60.34;96035.53;10453053;27;96992;-65
2022/04/05 00:14:52;;;;;;;8.65;5.60;;;;;;;2.53;61.09;96028.19;10454298;27;96947;-62
2022/04/05 00:19:56;;;;;;;6.57;5.07;;;;;;;2.57;60.16;96027.06;10436368;27;96989;-63
2022/04/05 00:24:59;;;;;;;10.82;6.10;;;;;;;2.45;61.03;96012.41;10439969;27;98294;-65
2022/04/05 00:30:01;;;;;;;19.85;10.75;;;;;;;2.33;61.85;96023.56;10429617;27;96772;-64
2022/04/05 00:35:08;;;;;;;19.77;11.05;;;;;;;2.35;61.59;96016.53;10423144;27;96821;-64
2022/04/05 00:40:11;;;;;;;24.17;12.50;;;;;;;2.39;61.47;96015.38;10421567;27;96920;-62
2022/04/05 00:45:16;;;;;;;19.10;10.20;;;;;;;2.36;61.93;96019.00;10424322;27;97336;-63
2022/04/05 00:50:22;;;;;;;10.27;7.00;;;;;;;2.33;61.70;96014.06;10423844;27;98153;-63
2022/04/05 00:55:27;;;;;;;9.13;6.45;;;;;;;2.38;62.08;96011.19;10433681;27;101566;-62
2022/04/05 01:00:32;;;;;;;7.90;4.93;;;;;;;2.28;63.04;96014.34;10434467;27;97665;-64
2022/04/05 01:05:38;;;;;;;6.93;4.88;;;;;;;2.14;63.63;96009.31;10444790;27;96930;-64
2022/04/05 01:10:42;;;;;;;6.88;4.88;;;;;;;2.20;63.78;96008.91;10419669;27;96863;-64
2022/04/05 01:15:45;;;;;;;5.60;4.37;;;;;;;2.24;62.43;96015.50;10431775;27;97621;-62
2022/04/05 01:20:51;;;;;;;7.70;5.90;;;;;;;2.29;62.50;96007.47;10432144;27;99098;-63
2022/04/05 01:25:56;;;;;;;;;;;;;;;2.33;62.19;96005.50;10425516;27;98752;-62
2022/04/05 01:30:59;;;;;;;6.10;4.10;;;;;;;2.10;62.98;96008.69;10431997;27;96801;-63
2022/04/05 01:36:02;;;;;;;6.47;4.00;;;;;;;2.17;62.81;96003.94;10428417;27;97503;-64
2022/04/05 01:41:06;;;;;;;7.00;5.28;;;;;;;2.29;62.02;95997.97;10429749;27;96890;-62
2022/04/05 01:46:09;;;;;;;7.82;4.90;;;;;;;2.42;62.12;95997.16;10438053;27;99465;-63
2022/04/05 01:51:12;;;;;;;7.80;5.82;;;;;;;2.50;62.21;95987.16;10441992;27;97113;-63
2022/04/05 01:56:16;;;;;;;9.65;6.18;;;;;;;2.54;62.20;95995.50;10430287;27;96975;-62
2022/04/05 02:01:19;;;;;;;8.73;6.50;;;;;;;2.54;62.64;95995.50;10433679;27;98400;-62
2022/04/05 02:06:22;;;;;;;7.07;5.97;;;;;;;2.37;63.51;96000.06;10437126;27;96892;-63
2022/04/05 02:11:26;;;;;;;9.43;6.88;;;;;;;2.35;64.00;95996.72;10436049;27;99609;-64
2022/04/05 02:16:29;;;;;;;9.82;6.90;;;;;;;2.36;62.94;95990.66;10432852;27;97871;-64
2022/04/05 02:21:32;;;;;;;9.32;5.97;;;;;;;2.50;62.62;95997.47;10437699;27;97057;-62
2022/04/05 02:26:37;;;;;;;7.85;5.40;;;;;;;2.60;63.31;95989.94;10428144;27;98008;-63
2022/04/05 02:31:39;;;;;;;7.30;5.22;;;;;;;2.44;63.58;95990.97;10441523;27;97775;-63
2022/04/05 02:36:42;;;;;;;8.27;5.28;;;;;;;2.18;64.69;96000.47;10442879;27;98083;-63
2022/04/05 02:41:47;;;;;;;7.82;5.28;;;;;;;2.18;63.75;95992.72;10439835;27;102316;-63
2022/04/05 02:46:49;;;;;;;8.43;5.68;;;;;;;2.35;64.29;95986.41;10434422;27;99018;-63
2022/04/05 02:51:52;;;;;;;8.98;6.43;;;;;;;2.40;63.60;95988.69;10439399;27;98508;-62
2022/04/05 02:56:57;;;;;;;9.60;6.35;;;;;;;2.25;64.93;95973.34;10425895;27;97115;-65
2022/04/05 03:02:00;;;;;;;7.63;5.20;;;;;;;2.13;65.83;95972.41;10436307;27;98402;-65
2022/04/05 03:07:03;;;;;;;8.43;6.50;;;;;;;2.05;66.24;95979.00;10427172;27;96751;-63
2022/04/05 03:12:09;;;;;;;9.20;6.65;;;;;;;2.18;64.98;95973.84;10428250;27;96842;-63
2022/04/05 03:17:11;;;;;;;;;;;;;;;2.35;64.25;95973.53;10437103;27;97996;-63
2022/04/05 03:22:16;;;;;;;8.48;6.15;;;;;;;2.43;64.47;95963.53;10436319;27;98395;-63
2022/04/05 03:27:20;;;;;;;9.53;7.07;;;;;;;2.41;65.03;95964.56;10443111;27;97390;-64
2022/04/05 03:32:23;;;;;;;9.98;7.22;;;;;;;2.40;65.19;95963.72;10441866;27;96926;-63
2022/04/05 03:37:26;;;;;;;11.73;8.20;;;;;;;2.37;65.73;95957.97;10432383;27;98658;-63
2022/04/05 03:42:30;;;;;;;9.05;6.72;;;;;;;2.32;65.84;95955.72;10436940;27;96917;-62
2022/04/05 03:47:33;;;;;;;13.90;7.90;;;;;;;2.25;65.55;95960.47;10443093;27;97425;-63
2022/04/05 03:52:36;;;;;;;10.15;7.40;;;;;;;2.26;65.11;95954.34;10435134;27;96939;-62
2022/04/05 03:57:40;;;;;;;10.63;7.88;;;;;;;2.24;65.70;95948.47;10429307;27;97212;-63
2022/04/05 04:02:43;;;;;;;10.05;7.05;;;;;;;2.26;65.47;95943.22;10438814;27;96903;-63
2022/04/05 04:07:46;;;;;;;11.15;7.75;;;;;;;2.23;65.61;95954.59;10438006;27;97624;-62
2022/04/05 04:12:50;;;;;;;10.70;7.72;;;;;;;2.23;66.09;95946.84;10440029;27;96849;-65
2022/04/05 04:17:53;;;;;;;11.48;8.07;;;;;;;2.23;65.30;95951.16;10430096;27;98932;-62
2022/04/05 04:22:56;;;;;;;11.70;7.60;;;;;;;2.28;64.90;95944.75;10433143;27;96722;-62
2022/04/05 04:28:00;;;;;;;13.07;8.32;;;;;;;2.36;64.72;95946.03;10432212;27;98513;-62
2022/04/05 04:33:04;;;;;;;10.35;7.18;;;;;;;2.18;65.25;95943.75;10430124;27;96766;-62
2022/04/05 04:38:08;;;;;;;10.93;7.65;;;;;;;2.19;64.90;95940.25;10421043;27;96918;-64
2022/04/05 04:43:14;;;;;;;11.32;7.70;;;;;;;2.25;64.79;95937.25;10419703;27;97339;-63
2022/04/05 04:48:19;;;;;;;11.45;7.18;;;;;;;2.30;64.54;95937.78;10447827;27;97712;-62
2022/04/05 04:53:22;;;;;;;10.00;6.95;;;;;;;2.37;63.92;95937.34;10436383;27;100031;-63
2022/04/05 04:58:27;;;;;;;11.32;7.38;;;;;;;2.37;64.86;95932.19;10449016;27;96898;-64
2022/04/05 05:03:30;;;;;;;11.85;7.28;;;;;;;2.44;64.73;95933.41;10446959;27;97826;-62
2022/04/05 05:08:33;;;;;;;12.82;8.38;;;;;;;2.45;64.06;95935.88;10423624;27;97316;-64
2022/04/05 05:13:37;;;;;;;10.70;7.53;;;;;;;2.47;64.43;95931.44;10446562;27;98351;-63
2022/04/05 05:18:40;;;;;;;10.43;7.50;;;;;;;2.50;64.73;95935.56;10437157;27;97671;-63
2022/04/05 05:23:44;;;;;;;12.05;7.70;;;;;;;2.37;64.90;95935.59;10432800;27;98410;-63
2022/04/05 05:28:48;;;;;;;11.48;6.90;;;;;;;2.33;65.18;95935.91;10432512;27;97622;-62
2022/04/05 05:33:51;;;;;;;11.52;7.50;;;;;;;2.22;65.44;95937.47;10447149;27;103158;-63
2022/04/05 05:38:54;;;;;;;9.98;6.82;;;;;;;2.14;65.55;95937.16;10439245;27;97013;-64
2022/04/05 05:43:58;;;;;;;10.15;7.00;;;;;;;2.12;65.58;95939.00;10452189;27;98214;-63
2022/04/05 05:49:01;;;;;;;13.10;7.88;;;;;;;2.16;65.63;95943.00;10433133;27;96929;-63
2022/04/05 05:54:03;;;;;;;10.13;7.22;;;;;;;2.29;65.23;95955.91;10457682;27;97947;-62
2022/04/05 05:59:08;;;;;;;9.88;7.30;;;;;;;2.42;64.96;95955.91;10451155;27;99216;-63
2022/04/05 06:04:11;;;;;;;12.82;8.70;;;;;;;2.53;64.78;95953.44;10434661;27;96873;-62
2022/04/05 06:09:14;;;;;;;10.30;7.63;;;;;;;2.50;65.03;95956.22;10438389;27;96943;-63
2022/04/05 06:14:18;;;;;;;15.90;8.40;;;;;;;2.59;65.02;95952.97;10432633;27;98477;-63
2022/04/05 06:19:21;;;;;;;14.98;9.65;;;;;;;2.75;64.78;95959.66;10448496;27;98060;-63
2022/04/05 06:24:23;;;;;;;14.70;8.30;;;;;;;2.94;64.31;95957.44;10458944;27;97096;-62
2022/04/05 06:29:30;;;;;;;;;;;;;;;3.13;63.33;95962.13;10456165;27;100755;-63
2022/04/05 06:34:33;;;;;;;10.07;7.72;;;;;;;3.34;63.79;95969.28;10442474;27;100209;-64
2022/04/05 06:39:36;;;;;;;11.35;7.47;;;;;;;3.55;63.12;95966.91;10431398;27;97256;-62
2022/04/05 06:44:41;;;;;;;11.80;7.70;;;;;;;3.66;62.22;95964.38;10438612;27;97773;-63
2022/04/05 06:49:44;;;;;;;10.82;7.25;;;;;;;3.73;63.08;95968.16;10432290;27;97934;-62
2022/04/05 06:54:47;;;;;;;12.65;7.60;;;;;;;3.87;62.25;95961.97;10447124;27;97339;-63
2022/04/05 06:59:51;;;;;;;10.07;6.85;;;;;;;3.99;61.67;95960.25;10442476;27;97840;-64
2022/04/05 07:04:54;;;;;;;9.05;6.40;;;;;;;4.14;61.63;95948.78;10431111;27;96900;-63
2022/04/05 07:09:57;;;;;;;12.40;7.65;;;;;;;4.24;62.03;95950.66;10432316;27;97607;-62
2022/04/05 07:15:01;;;;;;;11.65;8.05;;;;;;;4.47;61.05;95948.91;10435635;27;98646;-62
2022/04/05 07:20:08;;;;;;;11.65;7.10;;;;;;;4.74;60.05;95941.59;10421068;27;97033;-64
2022/04/05 07:25:11;;;;;;;11.18;7.82;;;;;;;4.83;59.86;95945.25;10443025;27;96856;-63
2022/04/05 07:30:16;;;;;;;10.77;7.70;;;;;;;4.98;59.55;95947.59;10431150;27;98694;-63
2022/04/05 07:35:19;;;;;;;10.80;7.40;;;;;;;5.07;59.19;95944.28;10426066;27;98021;-63
2022/04/05 07:40:22;;;;;;;8.75;6.90;;;;;;;5.33;58.74;95948.19;10427623;27;97900;-63
2022/04/05 07:45:26;;;;;;;10.05;7.55;;;;;;;5.56;58.31;95936.94;10433128;27;96766;-64
2022/04/05 07:50:29;;;;;;;10.25;7.10;;;;;;;5.80;57.03;95941.91;10426696;27;97303;-64
2022/04/05 07:55:32;;;;;;;10.57;7.63;;;;;;;5.93;57.77;95950.31;10431290;27;97156;-63
2022/04/05 08:00:37;;;;;;;12.50;7.82;;;;;;;5.88;56.70;95940.31;10432647;27;98610;-63
2022/04/05 08:05:41;;;;;;;10.10;7.33;;;;;;;6.02;56.53;95938.38;10426950;27;96736;-63
2022/04/05 08:10:44;;;;;;;8.90;7.35;;;;;;;6.24;55.86;95943.41;10428578;27;96800;-63
2022/04/05 08:15:48;;;;;;;11.70;7.75;;;;;;;6.41;54.67;95947.16;10429381;27;97161;-62
2022/04/05 08:20:51;;;;;;;11.52;7.88;;;;;;;6.51;55.21;95934.25;10428313;27;96939;-63
2022/04/05 08:25:54;;;;;;;12.73;7.35;;;;;;;6.91;54.06;95940.41;10423583;27;97085;-62
2022/04/05 08:30:58;;;;;;;9.70;7.13;;;;;;;7.08;53.41;95936.38;10433407;27;96931;-63
2022/04/05 08:36:01;;;;;;;11.10;7.63;;;;;;;7.37;52.60;95946.81;10429331;27;97378;-63
2022/04/05 08:41:06;;;;;;;8.77;6.90;;;;;;;7.87;50.93;95943.25;10424935;27;96825;-65
2022/04/05 08:46:11;;;;;;;8.43;6.72;;;;;;;7.88;50.28;95942.31;10422259;27;98380;-67
2022/04/05 08:51:15;;;;;;;9.85;7.15;;;;;;;7.90;50.30;95936.00;10436325;27;96960;-63
2022/04/05 08:56:17;;;;;;;10.15;6.88;;;;;;;8.11;49.60;95940.22;10425606;27;96805;-62
2022/04/05 09:01:23;;;;;;;10.60;6.80;;;;;;;8.50;47.58;95943.56;10432347;27;98614;-63
2022/04/05 09:06:29;;;;;;;8.82;6.40;;;;;;;8.73;47.52;95935.38;10438063;27;97234;-63
2022/04/05 09:11:33;;;;;;;8.15;6.13;;;;;;;8.97;47.45;95934.88;10432608;27;97113;-66
2022/04/05 09:16:37;;;;;;;9.52;6.95;;;;;;;9.19;46.81;95933.63;10429350;27;96822;-63
2022/04/05 09:21:51;;;;;;;8.55;6.13;;;;;;;9.19;46.26;95935.41;10424346;27;96898;-63
2022/04/05 09:26:54;;;;;;;8.75;5.85;;;;;;;9.23;46.22;95935.00;10423343;27;97359;-63
2022/04/05 09:31:58;;;;;;;8.77;5.97;;;;;;;9.38;45.24;95914.44;10424968;27;96793;-63
2022/04/05 09:37:08;;;;;;;7.70;5.30;;;;;;;9.44;44.99;95907.84;10418384;27;96853;-63
2022/04/05 09:42:11;;;;;;;6.88;5.25;;;;;;;9.59;44.25;95910.75;10426701;27;97634;-62
2022/04/05 09:47:17;;;;;;;7.05;4.97;;;;;;;9.94;42.38;95903.84;10425013;27;96938;-62
2022/04/05 09:52:24;;;;;;;7.85;6.00;;;;;;;9.87;42.75;95901.06;10422774;27;100358;-63
2022/04/05 09:57:30;;;;;;;8.15;5.30;;;;;;;9.83;43.21;95894.47;10436668;27;96863;-63
2022/04/05 10:02:34;;;;;;;6.18;5.07;;;;;;;9.83;41.88;95887.47;10439094;27;96962;-64
2022/04/05 10:07:37;;;;;;;6.78;4.75;;;;;;;10.07;40.63;95885.19;10434166;27;98189;-64
2022/04/05 10:12:41;;;;;;;5.50;4.10;;;;;;;10.42;39.61;95886.88;10434421;27;97646;-63
2022/04/05 10:17:47;;;;;;;6.43;4.13;;;;;;;10.51;38.45;95875.50;10430444;27;96908;-62
2022/04/05 10:22:54;;;;;;;5.28;4.30;;;;;;;10.64;38.04;95876.84;10428516;27;96860;-63
2022/04/05 10:27:57;;;;;;;4.90;3.35;;;;;;;10.93;37.14;95874.69;10434501;27;96801;-63
2022/04/05 10:33:08;;;;;;;3.78;2.90;;;;;;;11.75;35.17;95868.78;10434574;27;97724;-62
2022/04/05 10:38:12;;;;;;;5.72;3.38;;;;;;;12.33;35.54;95856.41;10432242;27;96982;-62
2022/04/05 10:43:20;;;;;;;4.83;3.10;;;;;;;12.81;33.81;95854.59;10447353;27;97167;-63
2022/04/05 10:48:28;;;;;;;3.65;3.13;;;;;;;12.77;33.48;95845.44;10427289;27;96908;-62
2022/04/05 10:53:33;;;;;;;4.78;3.80;;;;;;;13.09;33.33;95840.25;10429366;27;96996;-62
2022/04/05 10:58:38;;;;;;;5.82;3.50;;;;;;;13.12;33.37;95824.16;10428533;27;96875;-62
2022/04/05 11:03:44;;;;;;;4.57;3.47;;;;;;;13.03;35.98;95820.75;10428127;27;96941;-63
2022/04/05 11:08:52;;;;;;;4.93;3.88;;;;;;;13.21;33.92;95808.19;10430328;27;100053;-62
2022/04/05 11:14:03;;;;;;;4.60;3.50;;;;;;;13.33;34.07;95805.16;10428423;27;98024;-63
2022/04/05 11:19:07;;;;;;;6.05;3.70;;;;;;;13.53;33.58;95801.03;10441304;27;101889;-62
2022/04/05 11:24:10;;;;;;;7.00;4.10;;;;;;;13.32;34.25;95799.06;10443957;27;96907;-63
2022/04/05 11:29:22;;;;;;;6.53;3.78;;;;;;;12.98;33.37;95797.69;10427590;27;97462;-63
2022/04/05 11:34:37;;;;;;;5.47;3.53;;;;;;;12.96;33.22;95773.44;10430779;27;96807;-63
2022/04/05 11:39:42;;;;;;;6.68;3.53;;;;;;;13.23;33.02;95779.16;10428385;27;96748;-62
2022/04/05 11:44:49;;;;;;;4.43;3.38;;;;;;;13.55;33.50;95772.84;10424595;27;97175;-63
2022/04/05 11:49:54;;;;;;;7.78;3.22;;;;;;;13.58;32.10;95767.22;10439120;27;96934;-63
2022/04/05 12:00:18;;;;;;;5.50;3.10;;;;;;;13.96;33.11;95764.53;10434758;27;96901;-62
2022/04/05 12:05:22;;;;;;;4.45;2.60;;;;;;;14.41;31.75;95758.50;10426389;27;96975;-63
2022/04/05 12:10:25;;;;;;;3.30;2.45;;;;;;;14.28;33.09;95757.31;10440252;27;96712;-63
2022/04/05 12:15:28;;;;;;;3.65;2.40;;;;;;;14.28;32.70;95749.44;10433257;27;96903;-62
2022/04/05 12:20:32;;;;;;;2.92;2.10;;;;;;;14.19;32.34;95742.63;10436184;27;102328;-63
2022/04/05 12:25:35;;;;;;;4.07;2.00;;;;;;;14.27;32.38;95734.66;10419600;27;96818;-63
2022/04/05 12:30:38;;;;;;;3.67;1.90;;;;;;;14.47;32.38;95724.44;10418939;27;99810;-64
2022/04/05 12:35:44;;;;;;;3.25;1.80;;;;;;;14.48;32.54;95725.22;10418037;27;96759;-62
2022/04/05 12:40:47;;;;;;;2.40;1.60;;;;;;;14.19;32.71;95711.09;10419377;27;96864;-62
2022/04/05 12:45:51;;;;;;;4.35;2.03;;;;;;;13.85;33.66;95709.88;10437084;27;96994;-63
2022/04/05 12:50:56;;;;;;;2.60;1.67;;;;;;;14.19;34.17;95709.31;10435839;27;97443;-63
2022/04/05 12:56:00;;;;;;;4.43;1.97;;;;;;;14.54;33.99;95703.44;10438973;27;98576;-62
2022/04/05 13:01:16;;;;;;;3.10;1.80;;;;;;;14.81;33.39;95695.84;10434881;27;97771;-62
2022/04/05 13:06:29;;;;;;;2.25;1.70;;;;;;;15.18;34.27;95693.97;10429359;27;96964;-62
2022/04/05 13:11:33;;;;;;;2.83;1.48;;;;;;;15.22;34.45;95684.69;10424648;27;96922;-63
2022/04/05 13:16:36;;;;;;;3.30;1.50;;;;;;;15.54;34.54;95682.50;10436031;27;99110;-62
2022/04/05 13:21:46;;;;;;;2.50;1.30;;;;;;;16.09;34.07;95665.00;10424785;27;96935;-62
2022/04/05 13:26:52;;;;;;;2.28;1.30;;;;;;;16.28;34.10;95673.19;10435334;27;99022;-63
2022/04/05 13:31:57;;;;;;;2.83;1.10;;;;;;;16.77;33.66;95667.66;10432276;27;97223;-62
2022/04/05 13:37:02;;;;;;;2.53;1.20;;;;;;;17.68;33.15;95662.78;10433350;27;96773;-62
2022/04/05 13:42:08;;;;;;;1.00;0.90;;;;;;;18.39;32.28;95650.59;10439116;27;98527;-63
2022/04/05 13:47:11;;;;;;;1.92;1.00;;;;;;;20.29;32.27;95654.72;10425295;27;96857;-63
2022/04/05 13:52:16;;;;;;;2.42;1.15;;;;;;;21.58;30.16;95642.00;10434779;27;99069;-63
2022/04/05 13:57:29;;;;;;;1.88;1.30;;;;;;;22.66;29.30;95642.38;10435569;27;99069;-63
2022/04/05 14:02:33;;;;;;;2.10;1.27;;;;;;;22.78;28.77;95634.34;10441650;27;97144;-65
2022/04/05 14:07:38;;;;;;;1.27;1.10;;;;;;;22.91;28.82;95634.06;10434144;27;96813;-64
2022/04/05 14:12:41;;;;;;;3.45;1.30;;;;;;;24.03;27.53;95623.44;10434352;27;96763;-64
2022/04/05 14:17:44;;;;;;;3.85;1.30;;;;;;;25.43;26.53;95613.13;10428928;27;97192;-63
2022/04/05 14:22:49;;;;;;;1.67;1.10;;;;;;;25.95;26.28;95600.88;10432029;27;96837;-63
2022/04/05 14:27:52;;;;;;;1.60;1.25;;;;;;;26.62;25.61;95601.91;10440713;27;96938;-63
2022/04/05 14:32:54;;;;;;;1.73;1.30;;;;;;;26.27;25.32;95594.59;10446743;27;97888;-63
2022/04/05 14:37:59;;;;;;;1.27;0.98;;;;;;;26.74;25.73;95583.72;10429568;27;98595;-64
2022/04/05 14:43:02;;;;;;;1.52;1.08;;;;;;;27.40;24.41;95587.47;10421425;27;96831;-64
2022/04/05 14:48:06;;;;;;;1.80;0.95;;;;;;;28.00;24.45;95586.84;10433751;27;96907;-64
2022/04/05 14:53:10;;;;;;;2.45;1.10;;;;;;;28.58;23.22;95586.28;10437541;27;96787;-65
2022/04/05 14:58:16;;;;;;;1.10;1.00;;;;;;;29.01;22.75;95577.72;10432529;27;96958;-63
2022/04/05 15:03:20;;;;;;;1.55;1.10;;;;;;;29.10;22.49;95581.38;10445734;27;97475;-63
2022/04/05 15:08:25;;;;;;;1.70;0.95;;;;;;;29.28;22.83;95567.25;10428939;27;96795;-63
2022/04/05 15:13:29;;;;;;;1.55;0.88;;;;;;;29.56;22.61;95578.31;10437694;27;96943;-64
2022/04/05 15:18:46;;;;;;;0.57;0.20;;;;;;;27.11;24.95;95577.31;10428425;27;98485;-64
2022/04/05 15:23:50;;;;;;;0.28;0.20;;;;;;;24.57;27.68;95571.22;10430592;27;97842;-63
2022/04/05 15:28:53;;;;;;;1.67;0.55;;;;;;;24.70;27.54;95570.81;10430523;27;97513;-63
2022/04/05 15:33:56;;;;;;;0.52;0.40;;;;;;;25.90;26.35;95574.88;10439686;27;97056;-65
2022/04/05 15:39:01;;;;;;;2.28;0.65;;;;;;;22.77;29.34;95574.97;10432482;27;96746;-63
2022/04/05 15:44:04;;;;;;;0.50;0.20;;;;;;;20.82;31.89;95570.13;10427286;27;96866;-63
2022/04/05 15:49:07;;;;;;;0.37;0.30;;;;;;;19.79;33.76;95578.78;10437230;27;99868;-63
2022/04/05 15:54:13;;;;;;;6.00;2.30;;;;;;;18.71;33.71;95566.75;10433260;27;97700;-63
2022/04/05 15:59:19;;;;;;;4.10;2.30;;;;;;;18.74;32.24;95573.44;10427137;27;96945;-63
2022/04/05 16:04:22;;;;;;;4.13;2.20;;;;;;;18.68;32.66;95567.19;10424916;27;98773;-64
2022/04/05 16:09:26;;;;;;;3.58;1.80;;;;;;;18.50;32.99;95565.28;10431020;27;96903;-64
2022/04/05 16:14:29;;;;;;;3.58;2.30;;;;;;;18.51;33.02;95569.53;10423989;27;96868;-62
2022/04/05 16:19:32;;;;;;;4.22;2.50;;;;;;;18.44;34.20;95574.06;10451124;27;101773;-63
2022/04/05 16:24:36;;;;;;;3.55;2.63;;;;;;;18.58;33.83;95564.22;10435376;27;96997;-63
2022/04/05 16:29:39;;;;;;;;;;;;;;;18.86;33.46;95567.28;10442304;27;96788;-64
2022/04/05 16:34:44;;;;;;;3.17;2.20;;;;;;;19.46;32.05;95563.28;10432257;27;96993;-63
2022/04/05 16:39:48;;;;;;;5.32;1.70;;;;;;;19.83;32.26;95557.97;10442900;27;97996;-62
2022/04/05 16:44:51;;;;;;;2.53;1.63;;;;;;;21.20;31.19;95555.59;10438460;27;97081;-64
2022/04/05 16:49:56;;;;;;;3.55;1.40;;;;;;;21.98;30.05;95557.00;10425921;27;97396;-63
2022/04/05 16:55:03;;;;;;;2.20;1.70;;;;;;;22.45;29.16;95556.00;10438422;27;98221;-63
2022/04/05 17:00:10;;;;;;;1.60;1.40;;;;;;;21.15;30.69;95558.94;10434455;27;97823;-63
2022/04/05 17:05:13;;;;;;;7.63;1.63;;;;;;;19.55;32.50;95556.63;10440690;27;97071;-64
2022/04/05 17:10:17;;;;;;;4.47;1.63;;;;;;;18.26;33.82;95558.94;10433689;27;96945;-63
2022/04/05 17:15:20;;;;;;;3.17;1.33;;;;;;;17.25;34.60;95558.47;10440566;27;96832;-62
2022/04/05 17:20:23;;;;;;;3.80;1.77;;;;;;;16.14;36.13;95561.66;10448543;27;96858;-66
2022/04/05 17:25:29;;;;;;;3.25;2.17;;;;;;;15.47;37.83;95556.09;10424402;27;96743;-63
2022/04/05 17:30:32;;;;;;;4.93;2.08;;;;;;;14.77;38.38;95565.78;10431481;27;96814;-63
2022/04/05 17:35:35;;;;;;;2.08;1.40;;;;;;;13.99;41.29;95569.88;10427101;27;99993;-62
2022/04/05 17:40:40;;;;;;;1.27;0.98;;;;;;;13.28;43.80;95566.16;10439318;27;97645;-64
2022/04/05 17:45:45;;;;;;;1.90;1.08;;;;;;;12.92;44.73;95561.63;10455146;27;96927;-62
2022/04/05 17:50:47;;;;;;;0.77;0.70;;;;;;;12.75;44.73;95561.75;10441728;27;96824;-62
2022/04/05 17:55:52;;;;;;;4.75;1.30;;;;;;;12.67;45.00;95554.75;10459628;27;96892;-61
2022/04/05 18:00:55;;;;;;;2.47;1.60;;;;;;;12.51;45.45;95552.28;10437315;27;97304;-63
2022/04/05 18:05:59;;;;;;;2.13;1.35;;;;;;;12.31;45.73;95551.94;10439262;27;98541;-62
2022/04/05 18:11:04;;;;;;;2.50;1.23;;;;;;;12.14;46.39;95547.81;10444583;27;98492;-62
2022/04/05 18:16:07;;;;;;;;;;;;;;;11.87;45.79;95548.16;10444900;27;96966;-63
2022/04/05 18:21:13;;;;;;;3.15;2.35;;;;;;;11.59;47.24;95547.81;10473112;27;96945;-62
2022/04/05 18:26:19;;;;;;;9.13;1.65;;;;;;;11.36;48.36;95551.19;10444431;27;97984;-62
2022/04/05 18:31:22;;;;;;;1.20;0.98;;;;;;;11.15;48.55;95561.34;10449708;27;98948;-62
2022/04/05 18:36:26;;;;;;;2.40;1.48;;;;;;;10.98;48.83;95558.78;10444189;27;96848;-62
2022/04/05 18:41:30;;;;;;;2.72;1.20;;;;;;;10.71;50.36;95572.22;10430718;27;96902;-63
2022/04/05 18:46:33;;;;;;;3.07;1.07;;;;;;;10.51;50.76;95575.16;10456760;27;96886;-64
2022/04/05 18:51:36;;;;;;;2.85;1.60;;;;;;;10.26;51.29;95581.34;10442823;27;96977;-63
2022/04/05 18:56:40;;;;;;;5.47;2.80;;;;;;;9.97;52.68;95585.22;10451127;27;96890;-62
2022/04/05 19:01:43;;;;;;;3.93;1.90;;;;;;;9.64;53.09;95590.34;10437598;27;96896;-62
2022/04/05 19:06:46;;;;;;;5.65;3.20;;;;;;;9.46;53.28;95606.09;10447436;27;96694;-62
2022/04/05 19:11:51;;;;;;;4.88;2.30;;;;;;;9.34;54.56;95600.28;10433439;27;96882;-62
2022/04/05 19:16:54;;;;;;;2.92;1.55;;;;;;;9.01;55.42;95607.94;10433512;27;97936;-62
2022/04/05 19:21:58;;;;;;;2.75;1.85;;;;;;;8.68;56.12;95604.28;10432487;27;96776;-62
2022/04/05 19:27:02;;;;;;;5.50;2.30;;;;;;;8.44;56.80;95602.31;10437189;27;96943;-62
2022/04/05 19:32:06;;;;;;;4.00;1.90;;;;;;;8.43;56.67;95605.88;10449512;27;97617;-64
2022/04/05 19:37:09;;;;;;;2.85;1.65;;;;;;;8.29;56.94;95613.25;10436524;27;96914;-61
2022/04/05 19:42:13;;;;;;;1.50;1.30;;;;;;;8.18;57.40;95610.84;10440539;27;96964;-64
2022/04/05 19:47:16;;;;;;;2.67;1.67;;;;;;;8.10;57.23;95627.22;10456066;27;96939;-61
2022/04/05 19:52:19;;;;;;;2.00;1.60;;;;;;;8.03;57.52;95618.38;10434596;27;98014;-61
2022/04/05 19:57:24;;;;;;;3.35;1.88;;;;;;;7.65;59.26;95622.00;10436808;27;96832;-63
2022/04/05 20:02:26;;;;;;;2.80;1.80;;;;;;;7.33;59.72;95623.25;10428338;27;97037;-62
2022/04/05 20:07:29;;;;;;;2.33;1.55;;;;;;;7.07;61.06;95623.88;10455080;27;96788;-61
2022/04/05 20:12:34;;;;;;;2.53;1.80;;;;;;;7.04;60.94;95624.13;10435671;27;96862;-62
2022/04/05 20:23:01;;;;;;;1.70;1.50;;;;;;;7.05;59.66;95625.78;10441100;27;97218;-61
2022/04/05 20:28:05;;;;;;;3.55;1.77;;;;;;;7.04;59.67;95631.94;10429298;27;96922;-62
2022/04/05 20:33:08;;;;;;;2.20;1.60;;;;;;;7.00;59.74;95630.59;10465020;27;96847;-62
2022/04/05 20:38:11;;;;;;;3.53;1.50;;;;;;;6.77;60.75;95633.47;10419069;27;96919;-63
2022/04/05 20:43:16;;;;;;;1.52;1.02;;;;;;;6.54;61.79;95632.13;10434474;27;96902;-63
2022/04/05 20:48:19;;;;;;;3.83;1.75;;;;;;;6.19;63.47;95628.28;10426653;27;96778;-61
2022/04/05 20:53:22;;;;;;;2.75;1.25;;;;;;;6.06;63.59;95628.56;10435465;27;97152;-62
2022/04/05 20:58:30;;;;;;;4.25;1.20;;;;;;;6.09;63.67;95623.94;10433742;27;98302;-62
2022/04/05 21:03:33;;;;;;;1.40;0.77;;;;;;;6.16;63.87;95618.22;10435900;27;102525;-62
2022/04/05 21:08:37;;;;;;;2.55;1.88;;;;;;;6.06;63.47;95624.19;10431329;27;97415;-62
2022/04/05 21:13:41;;;;;;;2.17;1.70;;;;;;;5.99;64.04;95617.09;10425587;27;97715;-61
2022/04/05 21:18:44;;;;;;;4.25;2.22;;;;;;;5.87;63.88;95614.63;10435368;27;98911;-62
2022/04/05 21:23:48;;;;;;;3.40;2.08;;;;;;;5.83;63.50;95618.44;10428779;27;101161;-61
2022/04/05 21:34:13;;;;;;;5.05;3.08;;;;;;;5.79;63.25;95618.84;10448709;27;103795;-61
2022/04/05 21:39:16;;;;;;;15.45;9.35;;;;;;;5.61;64.45;95614.28;10452418;27;97209;-61
2022/04/05 21:44:20;;;;;;;13.25;9.38;;;;;;;5.54;64.25;95608.00;10439271;27;97306;-63
2022/04/05 21:49:23;;;;;;;5.57;4.18;;;;;;;5.41;64.71;95613.44;10436852;27;97006;-62
2022/04/05 21:54:26;;;;;;;3.70;2.30;;;;;;;5.26;65.57;95610.38;10454445;27;97461;-63
2022/04/05 21:59:32;;;;;;;4.00;2.28;;;;;;;5.18;65.72;95605.00;10457408;27;96986;-61
2022/04/05 22:04:36;;;;;;;4.47;2.58;;;;;;;5.19;65.13;95609.25;10465874;27;99066;-62
2022/04/05 22:09:39;;;;;;;3.10;2.10;;;;;;;5.15;64.95;95606.09;10446693;27;96965;-62
2022/04/05 22:14:43;;;;;;;4.45;3.22;;;;;;;5.18;65.42;95605.00;10454842;27;97760;-61
2022/04/05 22:19:46;;;;;;;4.85;2.95;;;;;;;5.23;64.42;95610.63;10435048;27;97310;-61
2022/04/05 22:24:49;;;;;;;3.35;2.40;;;;;;;5.16;64.85;95609.50;10439954;27;97906;-61
2022/04/05 22:29:53;;;;;;;3.47;2.22;;;;;;;4.86;66.14;95607.75;10439361;27;98826;-63
2022/04/05 22:34:56;;;;;;;4.18;2.70;;;;;;;4.64;66.82;95609.50;10450518;27;97307;-61
2022/04/05 22:39:59;;;;;;;3.35;2.15;;;;;;;4.57;66.98;95619.53;10442215;27;97903;-61
2022/04/05 22:45:04;;;;;;;3.35;1.92;;;;;;;4.29;69.79;95612.41;10437685;27;97151;-61
2022/04/05 22:50:08;;;;;;;4.87;2.90;;;;;;;4.06;70.07;95611.69;10421713;27;96986;-62
2022/04/05 22:55:10;;;;;;;5.28;2.92;;;;;;;4.02;69.40;95613.66;10438161;27;96970;-61
2022/04/05 23:00:16;;;;;;;5.20;3.00;;;;;;;4.11;69.02;95610.34;10430148;27;96996;-61
2022/04/05 23:05:20;;;;;;;5.82;3.58;;;;;;;4.07;68.94;95615.88;10449945;27;96974;-62
2022/04/05 23:10:23;;;;;;;4.35;2.67;;;;;;;4.08;68.55;95618.34;10429334;27;96875;-61
2022/04/05 23:15:27;;;;;;;5.07;3.30;;;;;;;4.08;68.87;95618.34;10454239;27;98704;-62
2022/04/05 23:20:30;;;;;;;6.03;3.53;;;;;;;4.12;68.60;95618.94;10428952;27;96847;-61
2022/04/05 23:25:32;;;;;;;7.40;4.00;;;;;;;3.93;69.63;95611.81;10424780;27;97008;-62
2022/04/05 23:30:38;;;;;;;6.30;4.22;;;;;;;3.68;70.13;95616.34;10433487;27;96930;-61
2022/04/05 23:35:42;;;;;;;4.13;2.65;;;;;;;3.58;71.60;95616.25;10444349;27;98601;-61
2022/04/05 23:40:44;;;;;;;7.32;2.75;;;;;;;3.71;71.22;95604.94;10430848;27;97599;-62
2022/04/05 23:45:49;;;;;;;4.13;2.85;;;;;;;3.59;72.39;95601.59;10433847;27;98272;-61
2022/04/05 23:50:53;;;;;;;2.70;1.58;;;;;;;3.62;71.27;95593.56;10428787;27;98676;-62
2022/04/05 23:55:58;;;;;;;3.95;2.40;;;;;;;3.64;71.86;95595.13;10445511;27;100424;-61
